sensor_id;sensor_type;location;lat;lon;timestamp;P1;durP1;ratioP1;P2;durP2;ratioP2
61899;SDS011;47853;55.890;37.664;2022-07-05T00:01:52;13.73;;;10.75;;
61899;SDS011;47853;55.890;37.664;2022-07-05T00:04:17;14.60;;;9.77;;
61899;SDS011;47853;55.890;37.664;2022-07-05T00:06:43;14.88;;;10.77;;
61899;SDS011;47853;55.890;37.664;2022-07-05T00:09:08;11.60;;;10.45;;
61899;SDS011;47853;55.890;37.664;2022-07-05T00:11:34;12.50;;;11.07;;
61899;SDS011;47853;55.890;37.664;2022-07-05T00:13:59;16.23;;;10.73;;
61899;SDS011;47853;55.890;37.664;2022-07-05T00:16:24;18.40;;;11.02;;
61899;SDS011;47853;55.890;37.664;2022-07-05T00:18:50;13.43;;;9.73;;
61899;SDS011;47853;55.890;37.664;2022-07-05T00:21:15;17.23;;;10.70;;
61899;SDS011;47853;55.890;37.664;2022-07-05T00:23:40;19.48;;;10.48;;
61899;SDS011;47853;55.890;37.664;2022-07-05T00:26:06;16.13;;;11.02;;
61899;SDS011;47853;55.890;37.664;2022-07-05T00:28:31;17.65;;;11.07;;
61899;SDS011;47853;55.890;37.664;2022-07-05T00:30:56;17.98;;;10.13;;
61899;SDS011;47853;55.890;37.664;2022-07-05T00:33:22;13.40;;;11.65;;
61899;SDS011;47853;55.890;37.664;2022-07-05T00:35:47;18.90;;;11.93;;
61899;SDS011;47853;55.890;37.664;2022-07-05T00:38:12;12.05;;;10.68;;
61899;SDS011;47853;55.890;37.664;2022-07-05T00:49:59;14.50;;;11.32;;
61899;SDS011;47853;55.890;37.664;2022-07-05T00:52:24;11.98;;;10.73;;
61899;SDS011;47853;55.890;37.664;2022-07-05T00:54:50;17.17;;;11.38;;
61899;SDS011;47853;55.890;37.664;2022-07-05T00:57:16;13.27;;;10.43;;
61899;SDS011;47853;55.890;37.664;2022-07-05T00:59:44;15.07;;;11.02;;
61899;SDS011;47853;55.890;37.664;2022-07-05T01:02:09;18.20;;;11.38;;
61899;SDS011;47853;55.890;37.664;2022-07-05T01:04:35;16.75;;;11.38;;
61899;SDS011;47853;55.890;37.664;2022-07-05T01:07:00;18.75;;;12.40;;
61899;SDS011;47853;55.890;37.664;2022-07-05T01:09:26;17.52;;;11.88;;
61899;SDS011;47853;55.890;37.664;2022-07-05T01:11:51;15.15;;;11.30;;
61899;SDS011;47853;55.890;37.664;2022-07-05T01:14:18;17.73;;;12.48;;
61899;SDS011;47853;55.890;37.664;2022-07-05T01:16:44;12.50;;;11.15;;
61899;SDS011;47853;55.890;37.664;2022-07-05T01:19:11;13.65;;;11.70;;
61899;SDS011;47853;55.890;37.664;2022-07-05T01:21:38;13.38;;;11.82;;
61899;SDS011;47853;55.890;37.664;2022-07-05T01:24:07;16.13;;;11.98;;
61899;SDS011;47853;55.890;37.664;2022-07-05T01:26:37;16.40;;;12.40;;
61899;SDS011;47853;55.890;37.664;2022-07-05T01:29:03;14.70;;;12.45;;
61899;SDS011;47853;55.890;37.664;2022-07-05T01:31:29;15.40;;;11.98;;
61899;SDS011;47853;55.890;37.664;2022-07-05T01:33:55;22.70;;;12.27;;
61899;SDS011;47853;55.890;37.664;2022-07-05T01:36:20;14.90;;;12.18;;
61899;SDS011;47853;55.890;37.664;2022-07-05T01:38:46;14.65;;;12.30;;
61899;SDS011;47853;55.890;37.664;2022-07-05T01:41:11;19.17;;;12.95;;
61899;SDS011;47853;55.890;37.664;2022-07-05T01:43:37;12.40;;;11.32;;
61899;SDS011;47853;55.890;37.664;2022-07-05T01:46:03;17.40;;;12.35;;
61899;SDS011;47853;55.890;37.664;2022-07-05T01:48:30;16.30;;;12.88;;
61899;SDS011;47853;55.890;37.664;2022-07-05T01:51:00;15.15;;;11.85;;
61899;SDS011;47853;55.890;37.664;2022-07-05T01:53:30;14.77;;;12.50;;
61899;SDS011;47853;55.890;37.664;2022-07-05T01:55:57;14.98;;;12.65;;
61899;SDS011;47853;55.890;37.664;2022-07-05T01:58:26;21.10;;;12.85;;
61899;SDS011;47853;55.890;37.664;2022-07-05T02:00:53;15.63;;;12.55;;
61899;SDS011;47853;55.890;37.664;2022-07-05T02:03:19;15.48;;;12.75;;
61899;SDS011;47853;55.890;37.664;2022-07-05T02:05:45;18.33;;;12.05;;
61899;SDS011;47853;55.890;37.664;2022-07-05T02:08:12;16.63;;;12.60;;
61899;SDS011;47853;55.890;37.664;2022-07-05T02:10:38;16.75;;;12.82;;
61899;SDS011;47853;55.890;37.664;2022-07-05T02:13:05;13.75;;;12.45;;
61899;SDS011;47853;55.890;37.664;2022-07-05T02:15:34;16.13;;;12.43;;
61899;SDS011;47853;55.890;37.664;2022-07-05T02:18:01;16.73;;;12.15;;
61899;SDS011;47853;55.890;37.664;2022-07-05T02:20:28;16.92;;;12.98;;
61899;SDS011;47853;55.890;37.664;2022-07-05T02:22:54;16.52;;;12.48;;
61899;SDS011;47853;55.890;37.664;2022-07-05T02:25:20;15.43;;;12.07;;
61899;SDS011;47853;55.890;37.664;2022-07-05T02:27:46;15.50;;;11.90;;
61899;SDS011;47853;55.890;37.664;2022-07-05T02:30:12;16.38;;;12.02;;
61899;SDS011;47853;55.890;37.664;2022-07-05T02:32:37;15.60;;;11.82;;
61899;SDS011;47853;55.890;37.664;2022-07-05T02:35:03;15.93;;;11.80;;
61899;SDS011;47853;55.890;37.664;2022-07-05T02:37:30;13.32;;;11.55;;
61899;SDS011;47853;55.890;37.664;2022-07-05T02:39:55;13.68;;;12.10;;
61899;SDS011;47853;55.890;37.664;2022-07-05T02:42:20;13.60;;;12.20;;
61899;SDS011;47853;55.890;37.664;2022-07-05T02:44:46;13.85;;;12.32;;
61899;SDS011;47853;55.890;37.664;2022-07-05T02:47:11;15.35;;;12.07;;
61899;SDS011;47853;55.890;37.664;2022-07-05T02:49:37;13.93;;;11.57;;
61899;SDS011;47853;55.890;37.664;2022-07-05T02:52:02;16.90;;;12.05;;
61899;SDS011;47853;55.890;37.664;2022-07-05T02:54:28;15.40;;;12.20;;
61899;SDS011;47853;55.890;37.664;2022-07-05T02:56:53;20.60;;;12.70;;
61899;SDS011;47853;55.890;37.664;2022-07-05T02:59:19;16.63;;;11.93;;
61899;SDS011;47853;55.890;37.664;2022-07-05T03:01:44;13.55;;;11.70;;
61899;SDS011;47853;55.890;37.664;2022-07-05T03:04:09;21.92;;;12.43;;
61899;SDS011;47853;55.890;37.664;2022-07-05T03:06:35;18.63;;;12.77;;
61899;SDS011;47853;55.890;37.664;2022-07-05T03:09:01;20.83;;;12.35;;
61899;SDS011;47853;55.890;37.664;2022-07-05T03:11:27;14.20;;;11.13;;
61899;SDS011;47853;55.890;37.664;2022-07-05T03:13:52;13.73;;;11.35;;
61899;SDS011;47853;55.890;37.664;2022-07-05T03:16:18;18.35;;;11.27;;
61899;SDS011;47853;55.890;37.664;2022-07-05T03:18:43;14.50;;;11.35;;
61899;SDS011;47853;55.890;37.664;2022-07-05T03:21:08;17.63;;;12.35;;
61899;SDS011;47853;55.890;37.664;2022-07-05T03:23:34;18.02;;;11.32;;
61899;SDS011;47853;55.890;37.664;2022-07-05T03:25:59;20.40;;;11.65;;
61899;SDS011;47853;55.890;37.664;2022-07-05T03:28:25;19.25;;;12.60;;
61899;SDS011;47853;55.890;37.664;2022-07-05T03:30:50;12.52;;;11.25;;
61899;SDS011;47853;55.890;37.664;2022-07-05T03:33:16;19.77;;;11.88;;
61899;SDS011;47853;55.890;37.664;2022-07-05T03:35:41;16.13;;;12.65;;
61899;SDS011;47853;55.890;37.664;2022-07-05T03:38:06;19.08;;;11.80;;
61899;SDS011;47853;55.890;37.664;2022-07-05T03:40:32;16.20;;;10.82;;
61899;SDS011;47853;55.890;37.664;2022-07-05T03:42:57;17.27;;;11.40;;
61899;SDS011;47853;55.890;37.664;2022-07-05T03:45:22;17.85;;;12.00;;
61899;SDS011;47853;55.890;37.664;2022-07-05T03:47:48;19.95;;;11.75;;
61899;SDS011;47853;55.890;37.664;2022-07-05T03:50:13;18.33;;;11.25;;
61899;SDS011;47853;55.890;37.664;2022-07-05T03:52:39;15.70;;;11.18;;
61899;SDS011;47853;55.890;37.664;2022-07-05T03:55:04;13.45;;;11.30;;
61899;SDS011;47853;55.890;37.664;2022-07-05T03:57:30;18.58;;;11.30;;
61899;SDS011;47853;55.890;37.664;2022-07-05T03:59:55;15.13;;;11.15;;
61899;SDS011;47853;55.890;37.664;2022-07-05T04:02:20;17.92;;;11.75;;
61899;SDS011;47853;55.890;37.664;2022-07-05T04:04:46;19.02;;;11.52;;
61899;SDS011;47853;55.890;37.664;2022-07-05T04:07:11;14.98;;;11.07;;
61899;SDS011;47853;55.890;37.664;2022-07-05T04:09:37;17.65;;;11.35;;
61899;SDS011;47853;55.890;37.664;2022-07-05T04:12:03;16.13;;;10.40;;
61899;SDS011;47853;55.890;37.664;2022-07-05T04:14:28;15.98;;;10.55;;
61899;SDS011;47853;55.890;37.664;2022-07-05T04:16:54;15.00;;;10.88;;
61899;SDS011;47853;55.890;37.664;2022-07-05T04:19:19;17.35;;;10.82;;
61899;SDS011;47853;55.890;37.664;2022-07-05T04:21:44;15.68;;;10.85;;
61899;SDS011;47853;55.890;37.664;2022-07-05T04:24:10;16.02;;;10.05;;
61899;SDS011;47853;55.890;37.664;2022-07-05T04:26:35;13.23;;;9.77;;
61899;SDS011;47853;55.890;37.664;2022-07-05T04:29:01;23.63;;;10.90;;
61899;SDS011;47853;55.890;37.664;2022-07-05T04:31:26;16.15;;;10.25;;
61899;SDS011;47853;55.890;37.664;2022-07-05T04:33:52;18.85;;;9.60;;
61899;SDS011;47853;55.890;37.664;2022-07-05T04:36:17;17.00;;;10.82;;
61899;SDS011;47853;55.890;37.664;2022-07-05T04:38:43;14.50;;;9.93;;
61899;SDS011;47853;55.890;37.664;2022-07-05T04:41:08;15.85;;;10.27;;
61899;SDS011;47853;55.890;37.664;2022-07-05T04:43:33;14.10;;;10.10;;
61899;SDS011;47853;55.890;37.664;2022-07-05T04:45:59;14.73;;;10.50;;
61899;SDS011;47853;55.890;37.664;2022-07-05T04:48:24;18.70;;;9.32;;
61899;SDS011;47853;55.890;37.664;2022-07-05T04:50:50;20.17;;;10.07;;
61899;SDS011;47853;55.890;37.664;2022-07-05T04:53:15;12.60;;;9.27;;
61899;SDS011;47853;55.890;37.664;2022-07-05T04:55:40;14.68;;;9.38;;
61899;SDS011;47853;55.890;37.664;2022-07-05T04:58:06;11.68;;;9.07;;
61899;SDS011;47853;55.890;37.664;2022-07-05T05:00:31;18.98;;;9.43;;
61899;SDS011;47853;55.890;37.664;2022-07-05T05:02:56;22.15;;;9.73;;
61899;SDS011;47853;55.890;37.664;2022-07-05T05:05:22;14.38;;;9.43;;
61899;SDS011;47853;55.890;37.664;2022-07-05T05:07:47;16.13;;;9.70;;
61899;SDS011;47853;55.890;37.664;2022-07-05T05:10:13;14.30;;;8.77;;
61899;SDS011;47853;55.890;37.664;2022-07-05T05:12:38;10.43;;;8.80;;
61899;SDS011;47853;55.890;37.664;2022-07-05T05:15:04;15.30;;;8.95;;
61899;SDS011;47853;55.890;37.664;2022-07-05T05:17:36;13.30;;;8.32;;
61899;SDS011;47853;55.890;37.664;2022-07-05T05:20:04;16.38;;;8.15;;
61899;SDS011;47853;55.890;37.664;2022-07-05T05:22:31;14.10;;;8.63;;
61899;SDS011;47853;55.890;37.664;2022-07-05T05:24:56;10.43;;;7.60;;
61899;SDS011;47853;55.890;37.664;2022-07-05T05:27:22;13.18;;;8.20;;
61899;SDS011;47853;55.890;37.664;2022-07-05T05:29:47;16.65;;;8.15;;
61899;SDS011;47853;55.890;37.664;2022-07-05T05:32:12;8.63;;;7.70;;
61899;SDS011;47853;55.890;37.664;2022-07-05T05:34:38;13.77;;;8.07;;
61899;SDS011;47853;55.890;37.664;2022-07-05T05:37:03;13.57;;;7.68;;
61899;SDS011;47853;55.890;37.664;2022-07-05T05:39:29;13.43;;;7.38;;
61899;SDS011;47853;55.890;37.664;2022-07-05T05:41:54;12.25;;;7.30;;
61899;SDS011;47853;55.890;37.664;2022-07-05T05:44:19;16.25;;;7.72;;
61899;SDS011;47853;55.890;37.664;2022-07-05T05:46:45;15.13;;;7.80;;
61899;SDS011;47853;55.890;37.664;2022-07-05T05:49:13;16.83;;;6.68;;
61899;SDS011;47853;55.890;37.664;2022-07-05T05:51:38;12.25;;;6.78;;
61899;SDS011;47853;55.890;37.664;2022-07-05T05:54:04;11.52;;;7.22;;
61899;SDS011;47853;55.890;37.664;2022-07-05T05:56:29;12.65;;;6.82;;
61899;SDS011;47853;55.890;37.664;2022-07-05T05:58:55;10.73;;;6.80;;
61899;SDS011;47853;55.890;37.664;2022-07-05T06:01:20;14.48;;;7.18;;
61899;SDS011;47853;55.890;37.664;2022-07-05T06:03:45;15.45;;;7.03;;
61899;SDS011;47853;55.890;37.664;2022-07-05T06:06:10;13.32;;;6.32;;
61899;SDS011;47853;55.890;37.664;2022-07-05T06:08:36;11.55;;;6.60;;
61899;SDS011;47853;55.890;37.664;2022-07-05T06:11:01;16.48;;;7.13;;
61899;SDS011;47853;55.890;37.664;2022-07-05T06:13:26;17.02;;;6.78;;
61899;SDS011;47853;55.890;37.664;2022-07-05T06:15:52;12.30;;;7.07;;
61899;SDS011;47853;55.890;37.664;2022-07-05T06:18:17;10.10;;;6.90;;
61899;SDS011;47853;55.890;37.664;2022-07-05T06:20:43;10.73;;;7.00;;
61899;SDS011;47853;55.890;37.664;2022-07-05T06:23:08;11.82;;;6.50;;
61899;SDS011;47853;55.890;37.664;2022-07-05T06:25:33;12.75;;;6.75;;
61899;SDS011;47853;55.890;37.664;2022-07-05T06:28:06;15.63;;;6.70;;
61899;SDS011;47853;55.890;37.664;2022-07-05T06:30:34;10.90;;;6.50;;
61899;SDS011;47853;55.890;37.664;2022-07-05T06:33:01;10.55;;;6.32;;
61899;SDS011;47853;55.890;37.664;2022-07-05T06:35:27;12.02;;;6.80;;
61899;SDS011;47853;55.890;37.664;2022-07-05T06:37:54;13.73;;;6.47;;
61899;SDS011;47853;55.890;37.664;2022-07-05T06:40:23;14.70;;;12.13;;
61899;SDS011;47853;55.890;37.664;2022-07-05T06:42:53;12.95;;;6.57;;
61899;SDS011;47853;55.890;37.664;2022-07-05T06:45:21;9.02;;;6.93;;
61899;SDS011;47853;55.890;37.664;2022-07-05T06:50:22;15.13;;;6.43;;
61899;SDS011;47853;55.890;37.664;2022-07-05T06:52:47;16.52;;;7.82;;
61899;SDS011;47853;55.890;37.664;2022-07-05T06:55:13;9.35;;;6.90;;
61899;SDS011;47853;55.890;37.664;2022-07-05T06:57:38;12.98;;;7.88;;
61899;SDS011;47853;55.890;37.664;2022-07-05T07:00:04;11.27;;;7.03;;
61899;SDS011;47853;55.890;37.664;2022-07-05T07:02:30;14.65;;;6.75;;
61899;SDS011;47853;55.890;37.664;2022-07-05T07:04:55;11.13;;;6.60;;
61899;SDS011;47853;55.890;37.664;2022-07-05T07:07:21;10.45;;;6.00;;
61899;SDS011;47853;55.890;37.664;2022-07-05T07:09:46;9.27;;;5.97;;
61899;SDS011;47853;55.890;37.664;2022-07-05T07:12:11;10.13;;;6.20;;
61899;SDS011;47853;55.890;37.664;2022-07-05T07:14:37;9.95;;;5.65;;
61899;SDS011;47853;55.890;37.664;2022-07-05T07:17:02;9.82;;;6.03;;
61899;SDS011;47853;55.890;37.664;2022-07-05T07:19:28;10.50;;;5.88;;
61899;SDS011;47853;55.890;37.664;2022-07-05T07:21:53;6.93;;;6.25;;
61899;SDS011;47853;55.890;37.664;2022-07-05T07:24:18;11.43;;;6.70;;
61899;SDS011;47853;55.890;37.664;2022-07-05T07:26:43;14.38;;;6.80;;
61899;SDS011;47853;55.890;37.664;2022-07-05T07:29:09;10.00;;;6.93;;
61899;SDS011;47853;55.890;37.664;2022-07-05T07:31:34;8.40;;;6.00;;
61899;SDS011;47853;55.890;37.664;2022-07-05T07:33:59;10.45;;;6.50;;
61899;SDS011;47853;55.890;37.664;2022-07-05T07:36:25;8.73;;;6.40;;
61899;SDS011;47853;55.890;37.664;2022-07-05T07:38:50;8.52;;;5.95;;
61899;SDS011;47853;55.890;37.664;2022-07-05T07:41:15;8.15;;;5.75;;
61899;SDS011;47853;55.890;37.664;2022-07-05T07:43:41;12.25;;;9.68;;
61899;SDS011;47853;55.890;37.664;2022-07-05T07:46:06;10.07;;;5.53;;
61899;SDS011;47853;55.890;37.664;2022-07-05T07:48:31;10.57;;;6.07;;
61899;SDS011;47853;55.890;37.664;2022-07-05T07:50:57;7.72;;;6.40;;
61899;SDS011;47853;55.890;37.664;2022-07-05T07:53:22;11.23;;;6.78;;
61899;SDS011;47853;55.890;37.664;2022-07-05T07:55:48;7.32;;;6.60;;
61899;SDS011;47853;55.890;37.664;2022-07-05T07:58:13;7.72;;;6.95;;
61899;SDS011;47853;55.890;37.664;2022-07-05T08:00:39;9.25;;;6.10;;
61899;SDS011;47853;55.890;37.664;2022-07-05T08:03:04;15.73;;;6.43;;
61899;SDS011;47853;55.890;37.664;2022-07-05T08:05:29;12.32;;;6.60;;
61899;SDS011;47853;55.890;37.664;2022-07-05T08:07:55;12.40;;;6.63;;
61899;SDS011;47853;55.890;37.664;2022-07-05T08:10:20;14.02;;;6.35;;
61899;SDS011;47853;55.890;37.664;2022-07-05T08:12:45;13.43;;;6.32;;
61899;SDS011;47853;55.890;37.664;2022-07-05T08:15:11;8.68;;;5.88;;
61899;SDS011;47853;55.890;37.664;2022-07-05T08:17:36;11.82;;;7.30;;
61899;SDS011;47853;55.890;37.664;2022-07-05T08:20:02;11.77;;;6.72;;
61899;SDS011;47853;55.890;37.664;2022-07-05T08:22:27;8.73;;;6.68;;
61899;SDS011;47853;55.890;37.664;2022-07-05T08:24:53;13.73;;;6.72;;
61899;SDS011;47853;55.890;37.664;2022-07-05T08:27:18;11.38;;;7.88;;
61899;SDS011;47853;55.890;37.664;2022-07-05T08:29:43;17.65;;;7.40;;
61899;SDS011;47853;55.890;37.664;2022-07-05T08:32:09;7.72;;;6.63;;
61899;SDS011;47853;55.890;37.664;2022-07-05T08:34:35;14.05;;;7.13;;
61899;SDS011;47853;55.890;37.664;2022-07-05T08:37:00;15.43;;;7.82;;
61899;SDS011;47853;55.890;37.664;2022-07-05T08:39:26;9.07;;;6.55;;
61899;SDS011;47853;55.890;37.664;2022-07-05T08:41:52;11.63;;;6.78;;
61899;SDS011;47853;55.890;37.664;2022-07-05T08:44:21;9.20;;;7.25;;
61899;SDS011;47853;55.890;37.664;2022-07-05T08:46:47;9.23;;;6.68;;
61899;SDS011;47853;55.890;37.664;2022-07-05T08:49:14;17.33;;;7.70;;
61899;SDS011;47853;55.890;37.664;2022-07-05T08:51:40;13.85;;;7.40;;
61899;SDS011;47853;55.890;37.664;2022-07-05T08:54:08;14.70;;;9.50;;
61899;SDS011;47853;55.890;37.664;2022-07-05T08:56:35;12.43;;;7.72;;
61899;SDS011;47853;55.890;37.664;2022-07-05T08:59:00;12.45;;;7.72;;
61899;SDS011;47853;55.890;37.664;2022-07-05T09:01:26;12.95;;;7.80;;
61899;SDS011;47853;55.890;37.664;2022-07-05T09:03:52;16.95;;;7.43;;
61899;SDS011;47853;55.890;37.664;2022-07-05T09:06:18;12.88;;;7.80;;
61899;SDS011;47853;55.890;37.664;2022-07-05T09:08:45;16.83;;;7.95;;
61899;SDS011;47853;55.890;37.664;2022-07-05T09:11:13;12.15;;;8.10;;
61899;SDS011;47853;55.890;37.664;2022-07-05T09:13:41;10.95;;;7.35;;
61899;SDS011;47853;55.890;37.664;2022-07-05T09:16:09;10.40;;;8.07;;
61899;SDS011;47853;55.890;37.664;2022-07-05T09:18:52;13.88;;;8.18;;
61899;SDS011;47853;55.890;37.664;2022-07-05T09:21:19;18.83;;;7.70;;
61899;SDS011;47853;55.890;37.664;2022-07-05T09:23:53;11.63;;;7.65;;
61899;SDS011;47853;55.890;37.664;2022-07-05T09:26:20;15.95;;;7.85;;
61899;SDS011;47853;55.890;37.664;2022-07-05T09:28:55;10.07;;;7.80;;
61899;SDS011;47853;55.890;37.664;2022-07-05T09:31:28;16.77;;;9.48;;
61899;SDS011;47853;55.890;37.664;2022-07-05T09:34:04;16.25;;;9.20;;
61899;SDS011;47853;55.890;37.664;2022-07-05T09:44:41;14.20;;;9.02;;
61899;SDS011;47853;55.890;37.664;2022-07-05T09:47:08;20.98;;;11.52;;
61899;SDS011;47853;55.890;37.664;2022-07-05T09:49:44;15.55;;;10.25;;
61899;SDS011;47853;55.890;37.664;2022-07-05T09:52:25;13.18;;;10.50;;
61899;SDS011;47853;55.890;37.664;2022-07-05T09:57:38;13.25;;;10.65;;
61899;SDS011;47853;55.890;37.664;2022-07-05T10:02:39;17.23;;;11.30;;
61899;SDS011;47853;55.890;37.664;2022-07-05T10:05:14;13.13;;;11.35;;
61899;SDS011;47853;55.890;37.664;2022-07-05T10:07:40;15.43;;;12.05;;
61899;SDS011;47853;55.890;37.664;2022-07-05T10:10:08;14.88;;;12.02;;
61899;SDS011;47853;55.890;37.664;2022-07-05T10:12:36;16.25;;;11.43;;
61899;SDS011;47853;55.890;37.664;2022-07-05T10:15:02;13.30;;;11.40;;
61899;SDS011;47853;55.890;37.664;2022-07-05T10:17:28;17.27;;;10.73;;
61899;SDS011;47853;55.890;37.664;2022-07-05T10:20:00;19.20;;;11.75;;
61899;SDS011;47853;55.890;37.664;2022-07-05T10:22:27;13.48;;;10.95;;
61899;SDS011;47853;55.890;37.664;2022-07-05T10:24:52;25.55;;;19.33;;
61899;SDS011;47853;55.890;37.664;2022-07-05T10:27:19;21.23;;;14.50;;
61899;SDS011;47853;55.890;37.664;2022-07-05T10:29:44;13.77;;;12.07;;
61899;SDS011;47853;55.890;37.664;2022-07-05T10:32:10;19.70;;;12.27;;
61899;SDS011;47853;55.890;37.664;2022-07-05T10:34:38;13.20;;;10.77;;
61899;SDS011;47853;55.890;37.664;2022-07-05T10:37:05;12.55;;;10.32;;
61899;SDS011;47853;55.890;37.664;2022-07-05T10:39:31;12.60;;;9.90;;
61899;SDS011;47853;55.890;37.664;2022-07-05T10:41:57;12.20;;;9.88;;
61899;SDS011;47853;55.890;37.664;2022-07-05T10:44:29;20.90;;;10.98;;
61899;SDS011;47853;55.890;37.664;2022-07-05T10:47:09;15.98;;;10.38;;
61899;SDS011;47853;55.890;37.664;2022-07-05T10:49:36;16.48;;;10.77;;
61899;SDS011;47853;55.890;37.664;2022-07-05T10:52:03;13.00;;;11.50;;
61899;SDS011;47853;55.890;37.664;2022-07-05T10:54:29;18.20;;;14.55;;
61899;SDS011;47853;55.890;37.664;2022-07-05T11:00:04;11.13;;;8.68;;
61899;SDS011;47853;55.890;37.664;2022-07-05T11:02:31;12.98;;;8.70;;
61899;SDS011;47853;55.890;37.664;2022-07-05T11:04:57;9.88;;;9.07;;
61899;SDS011;47853;55.890;37.664;2022-07-05T11:08:05;12.80;;;10.02;;
61899;SDS011;47853;55.890;37.664;2022-07-05T11:10:24;10.20;;;9.25;;
61899;SDS011;47853;55.890;37.664;2022-07-05T11:12:50;8.70;;;7.97;;
61899;SDS011;47853;55.890;37.664;2022-07-05T11:15:15;7.45;;;6.75;;
61899;SDS011;47853;55.890;37.664;2022-07-05T11:17:41;8.55;;;7.45;;
61899;SDS011;47853;55.890;37.664;2022-07-05T11:20:08;6.63;;;6.03;;
61899;SDS011;47853;55.890;37.664;2022-07-05T11:22:34;7.88;;;6.60;;
61899;SDS011;47853;55.890;37.664;2022-07-05T11:25:02;9.07;;;7.07;;
61899;SDS011;47853;55.890;37.664;2022-07-05T11:27:28;10.00;;;6.97;;
61899;SDS011;47853;55.890;37.664;2022-07-05T11:29:55;7.60;;;6.93;;
61899;SDS011;47853;55.890;37.664;2022-07-05T11:34:56;10.20;;;7.68;;
61899;SDS011;47853;55.890;37.664;2022-07-05T11:37:58;7.53;;;6.80;;
61899;SDS011;47853;55.890;37.664;2022-07-05T11:40:31;7.55;;;6.53;;
61899;SDS011;47853;55.890;37.664;2022-07-05T11:43:00;10.73;;;8.23;;
61899;SDS011;47853;55.890;37.664;2022-07-05T11:45:26;9.95;;;7.32;;
61899;SDS011;47853;55.890;37.664;2022-07-05T11:47:53;8.02;;;5.93;;
61899;SDS011;47853;55.890;37.664;2022-07-05T11:50:24;6.90;;;6.35;;
61899;SDS011;47853;55.890;37.664;2022-07-05T11:52:51;6.45;;;5.82;;
61899;SDS011;47853;55.890;37.664;2022-07-05T11:55:16;5.82;;;5.25;;
61899;SDS011;47853;55.890;37.664;2022-07-05T11:57:48;7.00;;;5.72;;
61899;SDS011;47853;55.890;37.664;2022-07-05T12:00:25;6.97;;;5.10;;
61899;SDS011;47853;55.890;37.664;2022-07-05T12:02:54;8.88;;;5.20;;
61899;SDS011;47853;55.890;37.664;2022-07-05T12:05:19;6.53;;;5.38;;
61899;SDS011;47853;55.890;37.664;2022-07-05T12:07:49;5.68;;;5.07;;
61899;SDS011;47853;55.890;37.664;2022-07-05T12:10:15;7.00;;;5.50;;
61899;SDS011;47853;55.890;37.664;2022-07-05T12:12:41;8.63;;;5.28;;
61899;SDS011;47853;55.890;37.664;2022-07-05T12:15:07;7.75;;;4.85;;
61899;SDS011;47853;55.890;37.664;2022-07-05T12:17:34;10.60;;;5.07;;
61899;SDS011;47853;55.890;37.664;2022-07-05T12:20:00;9.45;;;4.85;;
61899;SDS011;47853;55.890;37.664;2022-07-05T12:24:59;5.55;;;4.53;;
61899;SDS011;47853;55.890;37.664;2022-07-05T12:27:26;5.55;;;4.78;;
61899;SDS011;47853;55.890;37.664;2022-07-05T12:29:52;11.90;;;8.18;;
61899;SDS011;47853;55.890;37.664;2022-07-05T12:32:18;7.35;;;5.53;;
61899;SDS011;47853;55.890;37.664;2022-07-05T12:34:43;6.35;;;5.72;;
61899;SDS011;47853;55.890;37.664;2022-07-05T12:37:09;6.32;;;5.10;;
61899;SDS011;47853;55.890;37.664;2022-07-05T12:39:34;6.90;;;6.20;;
61899;SDS011;47853;55.890;37.664;2022-07-05T12:42:00;11.77;;;5.82;;
61899;SDS011;47853;55.890;37.664;2022-07-05T12:44:25;8.95;;;5.40;;
61899;SDS011;47853;55.890;37.664;2022-07-05T12:46:50;12.70;;;6.00;;
61899;SDS011;47853;55.890;37.664;2022-07-05T12:49:16;8.82;;;5.30;;
61899;SDS011;47853;55.890;37.664;2022-07-05T12:52:02;7.35;;;5.20;;
61899;SDS011;47853;55.890;37.664;2022-07-05T12:54:29;9.05;;;6.20;;
61899;SDS011;47853;55.890;37.664;2022-07-05T12:56:55;7.15;;;5.93;;
61899;SDS011;47853;55.890;37.664;2022-07-05T12:59:20;7.13;;;5.55;;
61899;SDS011;47853;55.890;37.664;2022-07-05T13:01:46;9.00;;;5.68;;
61899;SDS011;47853;55.890;37.664;2022-07-05T13:04:18;8.95;;;5.25;;
61899;SDS011;47853;55.890;37.664;2022-07-05T13:12:03;17.98;;;6.95;;
61899;SDS011;47853;55.890;37.664;2022-07-05T13:14:33;7.78;;;6.00;;
61899;SDS011;47853;55.890;37.664;2022-07-05T13:16:59;13.18;;;6.30;;
61899;SDS011;47853;55.890;37.664;2022-07-05T13:19:25;11.32;;;6.50;;
61899;SDS011;47853;55.890;37.664;2022-07-05T13:21:50;14.30;;;7.30;;
61899;SDS011;47853;55.890;37.664;2022-07-05T13:24:15;12.00;;;7.50;;
61899;SDS011;47853;55.890;37.664;2022-07-05T13:26:41;14.23;;;8.07;;
61899;SDS011;47853;55.890;37.664;2022-07-05T13:29:06;15.95;;;10.18;;
61899;SDS011;47853;55.890;37.664;2022-07-05T13:31:32;19.25;;;9.65;;
61899;SDS011;47853;55.890;37.664;2022-07-05T13:33:58;15.98;;;11.38;;
61899;SDS011;47853;55.890;37.664;2022-07-05T13:36:24;21.17;;;13.32;;
61899;SDS011;47853;55.890;37.664;2022-07-05T13:38:50;23.48;;;14.00;;
61899;SDS011;47853;55.890;37.664;2022-07-05T13:41:16;25.13;;;15.57;;
61899;SDS011;47853;55.890;37.664;2022-07-05T13:43:41;18.98;;;14.88;;
61899;SDS011;47853;55.890;37.664;2022-07-05T13:46:06;24.33;;;15.38;;
61899;SDS011;47853;55.890;37.664;2022-07-05T13:48:32;14.85;;;12.52;;
61899;SDS011;47853;55.890;37.664;2022-07-05T13:50:57;11.02;;;9.85;;
61899;SDS011;47853;55.890;37.664;2022-07-05T13:53:22;13.40;;;8.82;;
61899;SDS011;47853;55.890;37.664;2022-07-05T13:55:48;10.18;;;8.73;;
61899;SDS011;47853;55.890;37.664;2022-07-05T13:58:13;8.35;;;7.57;;
61899;SDS011;47853;55.890;37.664;2022-07-05T14:00:38;10.70;;;8.00;;
61899;SDS011;47853;55.890;37.664;2022-07-05T14:03:04;9.77;;;7.88;;
61899;SDS011;47853;55.890;37.664;2022-07-05T14:05:29;10.25;;;6.95;;
61899;SDS011;47853;55.890;37.664;2022-07-05T14:07:54;6.88;;;5.70;;
61899;SDS011;47853;55.890;37.664;2022-07-05T14:10:20;7.00;;;5.43;;
61899;SDS011;47853;55.890;37.664;2022-07-05T14:12:45;5.43;;;4.75;;
61899;SDS011;47853;55.890;37.664;2022-07-05T14:15:10;7.50;;;5.32;;
61899;SDS011;47853;55.890;37.664;2022-07-05T14:17:42;6.25;;;5.45;;
61899;SDS011;47853;55.890;37.664;2022-07-05T14:20:07;7.45;;;5.13;;
61899;SDS011;47853;55.890;37.664;2022-07-05T14:22:33;5.97;;;5.30;;
61899;SDS011;47853;55.890;37.664;2022-07-05T14:24:59;5.40;;;4.90;;
61899;SDS011;47853;55.890;37.664;2022-07-05T14:27:24;5.65;;;5.13;;
61899;SDS011;47853;55.890;37.664;2022-07-05T14:29:49;6.25;;;4.72;;
61899;SDS011;47853;55.890;37.664;2022-07-05T14:32:15;7.57;;;4.70;;
61899;SDS011;47853;55.890;37.664;2022-07-05T14:34:40;6.57;;;4.82;;
61899;SDS011;47853;55.890;37.664;2022-07-05T14:37:05;9.93;;;6.00;;
61899;SDS011;47853;55.890;37.664;2022-07-05T14:39:31;10.90;;;6.22;;
61899;SDS011;47853;55.890;37.664;2022-07-05T14:41:56;7.32;;;5.63;;
61899;SDS011;47853;55.890;37.664;2022-07-05T14:44:21;9.57;;;6.57;;
61899;SDS011;47853;55.890;37.664;2022-07-05T14:46:47;9.60;;;6.32;;
61899;SDS011;47853;55.890;37.664;2022-07-05T14:49:12;7.63;;;5.78;;
61899;SDS011;47853;55.890;37.664;2022-07-05T14:51:37;7.32;;;5.82;;
61899;SDS011;47853;55.890;37.664;2022-07-05T14:54:03;9.73;;;6.65;;